createdAt,value
2018-08-06T00:03:01.014Z,26.32
2018-08-06T00:07:04.581Z,26.27
2018-08-06T00:11:08.115Z,26.18
2018-08-06T00:15:12.700Z,26.11
2018-08-06T00:19:16.231Z,26.08
2018-08-06T00:23:19.798Z,26.07
2018-08-06T00:27:23.339Z,26.03
2018-08-06T00:31:26.842Z,25.96
2018-08-06T00:35:30.370Z,25.87
2018-08-06T00:39:33.887Z,25.83
2018-08-06T00:43:37.478Z,25.78
2018-08-06T00:47:41.040Z,25.75
2018-08-06T00:51:44.562Z,25.68
2018-08-06T00:55:48.145Z,25.61
2018-08-06T00:59:51.638Z,25.56
2018-08-06T01:03:55.126Z,25.50
2018-08-06T01:07:58.624Z,25.48
2018-08-06T01:12:02.166Z,25.41
2018-08-06T01:16:05.721Z,25.36
2018-08-06T01:20:10.762Z,25.35
2018-08-06T01:24:14.335Z,25.32
2018-08-06T01:28:17.864Z,25.32
2018-08-06T01:32:21.369Z,25.32
2018-08-06T01:36:24.906Z,25.29
2018-08-06T01:40:28.459Z,25.27
2018-08-06T01:44:31.934Z,25.20
2018-08-06T01:48:35.429Z,25.19
2018-08-06T01:52:39.042Z,25.15
2018-08-06T01:56:42.560Z,25.09
2018-08-06T02:00:46.063Z,25.04
2018-08-06T02:04:49.573Z,25.00
2018-08-06T02:08:53.068Z,24.96
2018-08-06T02:12:56.685Z,24.89
2018-08-06T02:17:00.318Z,24.87
2018-08-06T02:21:04.203Z,24.81
2018-08-06T02:25:08.876Z,24.77
2018-08-06T02:29:12.445Z,24.73
2018-08-06T02:33:15.927Z,24.72
2018-08-06T02:37:19.439Z,24.72
2018-08-06T02:41:22.910Z,24.69
2018-08-06T02:45:26.370Z,24.68
2018-08-06T02:49:29.883Z,24.65
2018-08-06T02:53:34.506Z,24.65
2018-08-06T02:57:38.039Z,24.61
2018-08-06T03:01:41.547Z,24.58
2018-08-06T03:05:45.051Z,24.55
2018-08-06T03:09:48.496Z,24.54
2018-08-06T03:13:52.481Z,24.53
2018-08-06T03:17:55.970Z,24.50
2018-08-06T03:21:59.411Z,24.47
2018-08-06T03:26:02.921Z,24.43
2018-08-06T03:30:08.800Z,24.41
2018-08-06T03:34:12.246Z,24.40
2018-08-06T03:38:15.853Z,24.38
2018-08-06T03:42:19.361Z,24.37
2018-08-06T03:46:22.862Z,24.37
2018-08-06T03:50:26.406Z,24.33
2018-08-06T03:54:30.022Z,24.30
2018-08-06T03:58:33.501Z,24.30
2018-08-06T04:02:36.984Z,24.30
2018-08-06T04:06:40.549Z,24.33
2018-08-06T04:10:44.031Z,24.32
2018-08-06T04:14:47.515Z,24.33
2018-08-06T04:18:50.972Z,24.34
2018-08-06T04:22:54.497Z,24.33
2018-08-06T04:27:13.800Z,24.34
2018-08-06T04:31:25.312Z,24.29
2018-08-06T04:35:28.912Z,24.26
2018-08-06T04:39:32.523Z,24.22
2018-08-06T04:43:37.119Z,24.20
2018-08-06T04:47:41.649Z,24.19
2018-08-06T04:51:45.107Z,24.19
2018-08-06T04:55:48.619Z,24.17
2018-08-06T04:59:52.170Z,24.17
2018-08-06T05:03:55.720Z,24.18
2018-08-06T05:07:59.333Z,24.22
2018-08-06T05:12:02.848Z,24.29
2018-08-06T05:16:06.370Z,24.37
2018-08-06T05:20:09.847Z,24.46
2018-08-06T05:24:13.415Z,24.51
2018-08-06T05:28:17.122Z,24.52
2018-08-06T05:32:20.734Z,24.54
2018-08-06T05:36:24.585Z,24.57
2018-08-06T05:40:28.131Z,24.65
2018-08-06T05:44:31.626Z,24.72
2018-08-06T05:48:35.126Z,24.78
2018-08-06T05:52:38.616Z,24.84
2018-08-06T05:56:42.111Z,24.91
2018-08-06T06:00:45.571Z,24.98
2018-08-06T06:04:49.067Z,24.94
2018-08-06T06:08:52.575Z,24.95
2018-08-06T06:12:56.083Z,24.98
2018-08-06T06:16:59.578Z,25.06
2018-08-06T06:21:03.049Z,25.14
2018-08-06T06:25:09.294Z,25.17
2018-08-06T06:29:12.875Z,25.18
2018-08-06T06:33:17.234Z,25.26
2018-08-06T06:37:20.740Z,25.38
2018-08-06T06:41:24.262Z,25.43
2018-08-06T06:45:27.757Z,25.58
2018-08-06T06:49:31.261Z,25.76
2018-08-06T06:53:34.759Z,25.77
2018-08-06T06:57:38.357Z,25.90
2018-08-06T07:01:41.882Z,25.91
2018-08-06T07:05:45.446Z,25.89
2018-08-06T07:09:48.950Z,25.97
2018-08-06T07:13:52.548Z,25.99
2018-08-06T07:17:55.930Z,26.08
2018-08-06T07:21:59.478Z,26.16
2018-08-06T07:26:03.107Z,26.16
2018-08-06T07:30:09.141Z,26.21
2018-08-06T07:34:12.579Z,26.33
2018-08-06T07:38:16.036Z,26.39
2018-08-06T07:42:19.632Z,26.36
2018-08-06T07:46:23.269Z,26.45
2018-08-06T07:50:27.700Z,26.50
2018-08-06T07:54:31.196Z,26.59
2018-08-06T07:58:34.686Z,26.80
2018-08-06T08:02:38.194Z,26.97
2018-08-06T08:06:41.699Z,27.18
2018-08-06T08:10:45.182Z,27.35
2018-08-06T08:14:48.698Z,27.39
2018-08-06T08:18:52.238Z,27.32
2018-08-06T08:22:55.759Z,27.16
2018-08-06T08:26:59.273Z,27.18
2018-08-06T08:31:02.922Z,27.30
2018-08-06T08:35:06.531Z,27.41
2018-08-06T08:39:11.756Z,27.47
2018-08-06T08:43:15.345Z,27.52
2018-08-06T08:47:18.853Z,27.61
2018-08-06T08:51:22.365Z,27.79
2018-08-06T08:55:25.941Z,27.94
2018-08-06T08:59:29.539Z,28.04
2018-08-06T09:03:33.032Z,28.17
2018-08-06T09:07:37.313Z,28.36
2018-08-06T09:11:41.004Z,28.50
2018-08-06T09:15:44.794Z,28.70
2018-08-06T09:19:48.311Z,28.86
2018-08-06T09:23:51.893Z,28.99
2018-08-06T09:27:55.431Z,29.03
2018-08-06T09:31:58.955Z,29.08
2018-08-06T09:36:02.425Z,29.16
2018-08-06T09:40:08.376Z,29.20
2018-08-06T09:44:11.849Z,29.29
2018-08-06T09:48:15.322Z,29.41
2018-08-06T09:52:19.305Z,29.54
2018-08-06T09:56:22.795Z,29.63
2018-08-06T10:00:31.998Z,29.72
2018-08-06T10:04:35.574Z,29.68
2018-08-06T10:08:39.061Z,29.77
2018-08-06T10:12:43.456Z,29.80
2018-08-06T10:16:47.077Z,29.85
2018-08-06T10:20:50.640Z,29.75
2018-08-06T10:24:54.150Z,29.71
2018-08-06T10:28:57.736Z,29.78
2018-08-06T10:33:01.253Z,30.01
2018-08-06T10:37:04.808Z,30.18
2018-08-06T10:41:08.831Z,30.34
2018-08-06T10:45:14.852Z,30.41
2018-08-06T10:49:18.501Z,30.49
2018-08-06T10:53:23.118Z,30.57
2018-08-06T10:57:26.853Z,30.60
2018-08-06T11:01:30.559Z,30.60
2018-08-06T11:05:34.178Z,30.70
2018-08-06T11:09:37.783Z,30.83
2018-08-06T11:13:41.432Z,30.98
2018-08-06T11:17:45.252Z,31.07
2018-08-06T11:21:48.983Z,31.15
2018-08-06T11:25:52.691Z,31.08
2018-08-06T11:29:56.599Z,31.02
2018-08-06T11:34:00.430Z,31.23
2018-08-06T11:38:04.184Z,31.38
2018-08-06T11:42:07.917Z,31.48
2018-08-06T11:46:11.832Z,31.58
2018-08-06T11:50:15.384Z,31.67
2018-08-06T11:54:18.887Z,31.74
2018-08-06T11:58:22.463Z,31.67
2018-08-06T12:02:26.534Z,31.64
2018-08-06T12:06:30.394Z,31.64
2018-08-06T12:10:33.984Z,31.65
2018-08-06T12:14:37.550Z,31.78
2018-08-06T12:18:41.066Z,31.87
2018-08-06T12:22:46.018Z,31.96
2018-08-06T12:26:49.805Z,32.00
2018-08-06T12:30:53.434Z,32.03
2018-08-06T12:34:57.115Z,32.07
2018-08-06T12:39:10.186Z,32.02
2018-08-06T12:43:13.876Z,32.04
2018-08-06T12:47:17.454Z,32.13
2018-08-06T12:51:21.192Z,32.16
2018-08-06T12:55:24.839Z,32.12
2018-08-06T12:59:28.447Z,32.06
2018-08-06T13:03:32.064Z,32.02
2018-08-06T13:07:35.753Z,31.89
2018-08-06T13:11:39.473Z,31.86
2018-08-06T13:15:43.127Z,31.87
2018-08-06T13:19:46.694Z,31.91
2018-08-06T13:23:50.282Z,31.75
2018-08-06T13:27:53.867Z,31.72
2018-08-06T13:31:57.477Z,31.72
2018-08-06T13:36:01.176Z,31.77
2018-08-06T13:40:05.772Z,31.71
2018-08-06T13:44:09.380Z,31.68
2018-08-06T13:48:13.081Z,31.78
2018-08-06T13:52:16.827Z,31.77
2018-08-06T13:56:20.628Z,31.72
2018-08-06T14:00:24.210Z,31.71
2018-08-06T14:04:27.966Z,31.71
2018-08-06T14:08:31.560Z,31.75
2018-08-06T14:12:35.359Z,31.79
2018-08-06T14:16:39.218Z,31.82
2018-08-06T14:20:42.865Z,31.88
2018-08-06T14:24:46.432Z,31.91
2018-08-06T14:28:50.078Z,31.82
2018-08-06T14:32:53.924Z,31.74
2018-08-06T14:36:57.597Z,31.76
2018-08-06T14:41:01.367Z,31.74
2018-08-06T14:45:06.560Z,31.74
2018-08-06T14:49:10.083Z,31.75
2018-08-06T14:53:13.533Z,31.67
2018-08-06T14:57:17.116Z,31.60
2018-08-06T15:01:20.630Z,31.67
2018-08-06T15:05:24.166Z,31.69
2018-08-06T15:09:27.819Z,31.67
2018-08-06T15:13:31.284Z,31.68
2018-08-06T15:17:34.756Z,31.67
2018-08-06T15:21:38.363Z,31.64
2018-08-06T15:25:42.101Z,31.65
2018-08-06T15:29:45.802Z,31.64
2018-08-06T15:33:49.520Z,31.59
2018-08-06T15:37:53.329Z,31.51
2018-08-06T15:41:57.108Z,31.47
2018-08-06T15:46:00.838Z,31.45
2018-08-06T15:50:05.191Z,31.44
2018-08-06T15:54:09.563Z,31.42
2018-08-06T15:58:13.591Z,31.37
2018-08-06T16:02:17.197Z,31.34
2018-08-06T16:06:20.965Z,31.33
2018-08-06T16:10:24.677Z,31.36
2018-08-06T16:14:28.771Z,31.71
2018-08-06T16:18:32.635Z,31.49
2018-08-06T16:22:38.056Z,31.44
2018-08-06T16:26:41.853Z,31.40
2018-08-06T16:30:45.545Z,31.32
2018-08-06T16:34:49.364Z,31.26
2018-08-06T16:38:53.194Z,31.23
2018-08-06T16:42:56.925Z,31.22
2018-08-06T16:47:00.641Z,31.22
2018-08-06T16:51:04.492Z,31.20
2018-08-06T16:55:09.322Z,31.18
2018-08-06T16:59:13.108Z,31.14
2018-08-06T17:03:16.895Z,31.11
2018-08-06T17:07:20.669Z,31.10
2018-08-06T17:11:24.451Z,31.09
2018-08-06T17:15:28.294Z,31.04
2018-08-06T17:19:32.436Z,31.00
2018-08-06T17:23:36.149Z,30.92
2018-08-06T17:27:47.199Z,30.88
2018-08-06T17:31:51.154Z,30.79
2018-08-06T17:35:55.088Z,30.71
2018-08-06T17:39:59.039Z,30.64
2018-08-06T17:44:02.925Z,30.58
2018-08-06T17:48:06.946Z,30.55
2018-08-06T17:52:11.400Z,30.53
2018-08-06T17:56:15.189Z,30.51
2018-08-06T18:00:19.441Z,30.46
2018-08-06T18:04:23.189Z,30.43
2018-08-06T18:08:26.960Z,30.39
2018-08-06T18:12:30.832Z,30.35
2018-08-06T18:16:34.843Z,30.30
2018-08-06T18:20:38.674Z,30.26
2018-08-06T18:24:42.523Z,30.21
2018-08-06T18:28:46.335Z,30.14
2018-08-06T18:32:50.159Z,30.07
2018-08-06T18:36:53.986Z,30.00
2018-08-06T18:40:57.620Z,29.90
2018-08-06T18:45:03.691Z,29.84
2018-08-06T18:53:32.709Z,29.69
2018-08-06T18:57:36.194Z,29.60
2018-08-06T19:01:39.783Z,29.51
2018-08-06T19:05:43.451Z,29.42
2018-08-06T19:09:46.937Z,29.34
2018-08-06T19:18:34.999Z,29.16
2018-08-06T19:22:38.938Z,29.07
2018-08-06T21:31:39.515Z,26.83
